Time;durP1;ratioP1;P1;durP2;ratioP2;P2;SDS_P1;SDS_P2;PMS_P1;PMS_P2;Temp;Humidity;BMP_temperature;BMP_pressure;BME280_temperature;BME280_humidity;BME280_pressure;Samples;Min_cycle;Max_cycle;Signal;HPM_P1;HPM_P2
2022/12/09 00:01:38;;;;;;;;;;;21.90;61.70;;;;;;1612557;72;702;-69
2022/12/09 00:03:39;;;;;;;;;;;21.90;61.70;;;;;;1604438;73;596;-70
2022/12/09 00:05:41;;;;;;;;;;;22.00;61.80;;;;;;1605176;72;800;-70
2022/12/09 00:07:43;;;;;;;;;;;22.00;61.70;;;;;;1606549;72;1921;-68
2022/12/09 00:09:45;;;;;;;;;;;22.00;61.70;;;;;;1605601;73;1141;-68
2022/12/09 00:11:47;;;;;;;;;;;21.90;61.70;;;;;;1602789;72;996;-69
2022/12/09 00:13:56;;;;;;;;;;;22.00;61.70;;;;;;1607730;72;590;-69
2022/12/09 00:15:58;;;;;;;;;;;22.00;61.70;;;;;;1604171;72;702;-68
2022/12/09 00:18:00;;;;;;;;;;;22.00;61.70;;;;;;1605548;72;787;-68
2022/12/09 00:20:01;;;;;;;;;;;22.00;61.60;;;;;;1590573;72;1588;-68
2022/12/09 00:22:03;;;;;;;;;;;21.90;61.70;;;;;;1596886;73;702;-70
2022/12/09 00:24:06;;;;;;;;;;;22.00;61.60;;;;;;1605318;72;820;-70
2022/12/09 00:26:08;;;;;;;;;;;22.00;61.60;;;;;;1598652;72;730;-70
2022/12/09 00:28:10;;;;;;;;;;;21.90;61.70;;;;;;1605831;72;1928;-70
2022/12/09 00:30:12;;;;;;;;;;;22.00;61.70;;;;;;1606193;72;1149;-69
2022/12/09 00:32:13;;;;;;;;;;;22.00;61.70;;;;;;1617647;72;762;-69
2022/12/09 00:34:15;;;;;;;;;;;22.00;61.70;;;;;;1605820;72;785;-69
2022/12/09 00:36:18;;;;;;;;;;;22.00;61.60;;;;;;1604531;72;757;-69
2022/12/09 00:38:22;;;;;;;;;;;22.00;61.70;;;;;;1599973;74;785;-69
2022/12/09 00:40:24;;;;;;;;;;;22.00;61.70;;;;;;1606625;73;1145;-70
2022/12/09 00:42:25;;;;;;;;;;;22.00;61.70;;;;;;1601651;72;786;-68
2022/12/09 00:44:27;;;;;;;;;;;22.00;61.70;;;;;;1606524;72;689;-70
2022/12/09 00:46:29;;;;;;;;;;;22.00;61.70;;;;;;1607789;72;729;-70
2022/12/09 00:48:33;;;;;;;;;;;22.00;61.60;;;;;;1612046;73;1934;-70
2022/12/09 00:50:35;;;;;;;;;;;22.00;61.70;;;;;;1601264;72;1140;-69
2022/12/09 00:52:36;;;;;;;;;;;22.00;61.60;;;;;;1607326;72;722;-70
2022/12/09 00:54:38;;;;;;;;;;;22.00;61.60;;;;;;1594991;72;688;-70
2022/12/09 00:56:40;;;;;;;;;;;22.00;61.70;;;;;;1607786;72;712;-70
2022/12/09 00:58:42;;;;;;;;;;;22.00;61.70;;;;;;1605875;73;674;-70
2022/12/09 01:00:44;;;;;;;;;;;22.00;61.70;;;;;;1604488;72;1144;-71
2022/12/09 01:02:46;;;;;;;;;;;22.00;61.80;;;;;;1604202;72;746;-69
2022/12/09 01:04:50;;;;;;;;;;;21.90;61.80;;;;;;1602797;73;599;-68
2022/12/09 01:06:52;;;;;;;;;;;21.90;61.80;;;;;;1594733;72;845;-71
2022/12/09 01:08:54;;;;;;;;;;;22.00;61.80;;;;;;1608183;72;1944;-69
2022/12/09 01:10:56;;;;;;;;;;;21.90;61.80;;;;;;1606425;73;742;-68
2022/12/09 01:12:58;;;;;;;;;;;21.90;61.80;;;;;;1604632;72;699;-68
2022/12/09 01:15:00;;;;;;;;;;;22.00;61.80;;;;;;1608086;72;1423;-69
2022/12/09 01:17:01;;;;;;;;;;;22.00;61.80;;;;;;1608571;72;735;-69
2022/12/09 01:19:05;;;;;;;;;;;22.00;61.70;;;;;;1605231;72;1143;-71
2022/12/09 01:21:06;;;;;;;;;;;22.00;61.70;;;;;;1602902;72;658;-70
2022/12/09 01:23:08;;;;;;;;;;;22.00;61.80;;;;;;1599611;72;742;-70
2022/12/09 01:25:10;;;;;;;;;;;22.00;61.80;;;;;;1607936;72;740;-69
2022/12/09 01:27:12;;;;;;;;;;;22.00;61.70;;;;;;1602973;72;740;-70
2022/12/09 01:29:14;;;;;;;;;;;22.00;61.70;;;;;;1595773;74;1939;-70
2022/12/09 01:31:16;;;;;;;;;;;22.00;61.70;;;;;;1608980;72;725;-69
2022/12/09 01:33:18;;;;;;;;;;;22.00;61.70;;;;;;1583605;72;707;-69
2022/12/09 01:35:20;;;;;;;;;;;22.00;61.70;;;;;;1593083;74;734;-68
2022/12/09 01:37:22;;;;;;;;;;;22.00;61.70;;;;;;1598211;72;830;-70
2022/12/09 01:39:24;;;;;;;;;;;22.00;61.70;;;;;;1591771;72;1151;-70
2022/12/09 01:41:26;;;;;;;;;;;22.00;61.70;;;;;;1605504;72;689;-69
2022/12/09 01:43:27;;;;;;;;;;;22.00;61.70;;;;;;1607774;74;741;-69
2022/12/09 01:45:34;;;;;;;;;;;22.00;61.70;;;;;;1611695;72;745;-69
2022/12/09 01:47:36;;;;;;;;;;;22.00;61.70;;;;;;1607335;72;2170;-68
2022/12/09 01:49:40;;;;;;;;;;;22.00;61.70;;;;;;1598947;72;1941;-68
2022/12/09 01:51:42;;;;;;;;;;;22.00;61.70;;;;;;1604060;72;760;-68
2022/12/09 01:53:45;;;;;;;;;;;22.10;61.70;;;;;;1598311;73;771;-69
2022/12/09 01:55:47;;;;;;;;;;;22.00;61.70;;;;;;1607084;73;818;-68
2022/12/09 01:57:49;;;;;;;;;;;22.00;61.70;;;;;;1596975;72;786;-68
2022/12/09 01:59:51;;;;;;;;;;;22.00;61.70;;;;;;1609552;72;1154;-70
2022/12/09 02:01:54;;;;;;;;;;;22.00;61.70;;;;;;1607638;73;778;-70
2022/12/09 02:03:56;;;;;;;;;;;22.00;61.70;;;;;;1601450;73;745;-69
2022/12/09 02:05:57;;;;;;;;;;;22.00;61.80;;;;;;1618018;73;669;-69
2022/12/09 02:07:59;;;;;;;;;;;22.00;61.80;;;;;;1593826;72;1931;-69
2022/12/09 02:10:02;;;;;;;;;;;22.00;61.80;;;;;;1596124;70;2099;-78
2022/12/09 02:12:09;;;;;;;;;;;22.00;61.80;;;;;;1567120;74;1429;-80
2022/12/09 02:14:12;;;;;;;;;;;21.90;61.80;;;;;;1572963;74;1966;-79
2022/12/09 02:16:15;;;;;;;;;;;21.90;61.90;;;;;;1569220;75;690;-81
2022/12/09 02:18:28;;;;;;;;;;;22.00;61.90;;;;;;1566798;74;734;-80
2022/12/09 02:20:31;;;;;;;;;;;21.90;61.90;;;;;;1562790;74;1234;-82
2022/12/09 02:22:34;;;;;;;;;;;21.90;61.90;;;;;;1566401;74;922;-79
2022/12/09 02:24:38;;;;;;;;;;;22.00;61.90;;;;;;1574711;74;718;-80
2022/12/09 02:26:41;;;;;;;;;;;22.00;61.90;;;;;;1574621;74;1051;-80
2022/12/09 02:28:56;;;;;;;;;;;21.90;61.90;;;;;;1564814;74;1918;-80
2022/12/09 02:31:06;;;;;;;;;;;21.90;61.90;;;;;;1575706;74;1541;-81
2022/12/09 02:33:09;;;;;;;;;;;21.90;61.90;;;;;;1572916;74;1542;-81
2022/12/09 02:35:19;;;;;;;;;;;22.00;61.90;;;;;;1572566;74;706;-81
2022/12/09 02:37:22;;;;;;;;;;;22.00;61.90;;;;;;1572354;74;845;-82
2022/12/09 02:39:26;;;;;;;;;;;22.00;61.90;;;;;;1572074;74;1156;-79
2022/12/09 02:41:28;;;;;;;;;;;21.90;61.90;;;;;;1562216;74;1913;-80
2022/12/09 02:43:31;;;;;;;;;;;22.00;62.00;;;;;;1565414;75;793;-80
2022/12/09 02:45:33;;;;;;;;;;;22.00;62.00;;;;;;1562122;74;786;-80
2022/12/09 02:47:35;;;;;;;;;;;22.00;62.00;;;;;;1563349;74;736;-80
2022/12/09 02:49:37;;;;;;;;;;;22.00;62.00;;;;;;1563473;75;1927;-80
2022/12/09 02:51:41;;;;;;;;;;;21.90;62.00;;;;;;1578318;75;721;-81
2022/12/09 02:53:43;;;;;;;;;;;21.90;62.00;;;;;;1572801;74;726;-80
2022/12/09 02:55:45;;;;;;;;;;;21.90;62.00;;;;;;1572908;74;725;-79
2022/12/09 02:57:47;;;;;;;;;;;21.90;62.00;;;;;;1568037;74;729;-80
2022/12/09 02:59:49;;;;;;;;;;;21.90;62.10;;;;;;1565261;74;1169;-79
2022/12/09 03:01:52;;;;;;;;;;;21.90;62.20;;;;;;1569481;74;727;-80
2022/12/09 03:03:54;;;;;;;;;;;21.90;62.20;;;;;;1563674;74;1752;-79
2022/12/09 03:06:08;;;;;;;;;;;21.80;62.10;;;;;;1569452;74;792;-80
2022/12/09 03:08:15;;;;;;;;;;;21.90;62.20;;;;;;1572180;74;1947;-80
2022/12/09 03:10:18;;;;;;;;;;;21.80;62.20;;;;;;1556869;74;1125;-80
2022/12/09 03:12:20;;;;;;;;;;;21.80;62.30;;;;;;1576111;74;838;-80
2022/12/09 03:14:23;;;;;;;;;;;21.80;62.30;;;;;;1565746;74;763;-79
2022/12/09 03:16:27;;;;;;;;;;;21.90;62.40;;;;;;1567899;74;715;-79
2022/12/09 03:18:29;;;;;;;;;;;21.90;62.30;;;;;;1563016;74;1125;-79
2022/12/09 03:20:31;;;;;;;;;;;21.90;62.30;;;;;;1572618;74;1177;-79
2022/12/09 03:22:33;;;;;;;;;;;21.90;62.30;;;;;;1579298;75;691;-78
2022/12/09 03:24:36;;;;;;;;;;;21.90;62.30;;;;;;1575890;74;737;-77
2022/12/09 03:26:38;;;;;;;;;;;21.90;62.40;;;;;;1568186;75;763;-79
2022/12/09 03:28:41;;;;;;;;;;;21.90;62.30;;;;;;1575536;74;1946;-79
2022/12/09 03:30:44;;;;;;;;;;;21.90;62.30;;;;;;1565165;74;1133;-79
2022/12/09 03:32:46;;;;;;;;;;;21.90;62.30;;;;;;1568265;74;686;-79
2022/12/09 03:34:48;;;;;;;;;;;21.90;62.20;;;;;;1570642;75;781;-76
2022/12/09 03:36:50;;;;;;;;;;;22.00;62.20;;;;;;1577367;74;732;-79
2022/12/09 03:38:52;;;;;;;;;;;22.00;62.10;;;;;;1569637;74;712;-78
2022/12/09 03:40:55;;;;;;;;;;;22.00;62.10;;;;;;1573663;74;1140;-77
2022/12/09 03:43:13;;;;;;;;;;;22.00;62.00;;;;;;1572141;75;1151;-77
2022/12/09 03:45:15;;;;;;;;;;;22.00;62.20;;;;;;1573763;74;749;-78
2022/12/09 03:47:17;;;;;;;;;;;22.00;62.10;;;;;;1562800;74;800;-78
2022/12/09 03:49:19;;;;;;;;;;;22.00;62.00;;;;;;1570189;74;1941;-78
2022/12/09 03:51:21;;;;;;;;;;;22.00;62.00;;;;;;1566020;74;711;-79
2022/12/09 03:53:28;;;;;;;;;;;22.00;62.00;;;;;;1574711;74;741;-80
2022/12/09 03:55:37;;;;;;;;;;;22.10;62.10;;;;;;1566719;74;969;-80
2022/12/09 03:57:39;;;;;;;;;;;22.00;62.00;;;;;;1566863;74;726;-76
2022/12/09 03:59:42;;;;;;;;;;;22.00;61.90;;;;;;1561995;74;1192;-79
2022/12/09 04:01:43;;;;;;;;;;;22.00;61.90;;;;;;1577085;74;677;-79
2022/12/09 04:03:47;;;;;;;;;;;22.10;61.90;;;;;;1574436;74;1507;-80
2022/12/09 04:05:49;;;;;;;;;;;22.10;61.90;;;;;;1525389;75;812;-79
2022/12/09 04:07:51;;;;;;;;;;;22.10;61.90;;;;;;1553219;75;700;-79
2022/12/09 04:09:53;;;;;;;;;;;22.10;61.90;;;;;;1561163;75;1958;-78
2022/12/09 04:11:55;;;;;;;;;;;22.10;61.90;;;;;;1565826;74;706;-79
2022/12/09 04:13:57;;;;;;;;;;;22.20;61.90;;;;;;1553365;74;726;-77
2022/12/09 04:15:58;;;;;;;;;;;22.10;61.80;;;;;;1576275;74;698;-81
2022/12/09 04:18:00;;;;;;;;;;;22.10;61.80;;;;;;1570963;75;652;-81
2022/12/09 04:20:02;;;;;;;;;;;22.10;61.80;;;;;;1560085;75;1179;-82
2022/12/09 04:22:04;;;;;;;;;;;22.10;61.80;;;;;;1561782;74;699;-81
2022/12/09 04:24:06;;;;;;;;;;;22.10;61.80;;;;;;1571168;75;688;-80
2022/12/09 04:26:08;;;;;;;;;;;22.20;61.70;;;;;;1577402;74;823;-81
2022/12/09 04:28:10;;;;;;;;;;;22.20;61.70;;;;;;1530944;75;1266;-81
2022/12/09 04:30:12;;;;;;;;;;;22.20;61.60;;;;;;1573726;74;1948;-81
2022/12/09 04:32:14;;;;;;;;;;;22.20;61.60;;;;;;1577653;75;714;-80
2022/12/09 04:34:15;;;;;;;;;;;22.20;61.60;;;;;;1569015;74;721;-81
2022/12/09 04:36:18;;;;;;;;;;;22.20;61.60;;;;;;1578830;74;715;-81
2022/12/09 04:38:20;;;;;;;;;;;22.20;61.60;;;;;;1573352;74;735;-82
2022/12/09 04:40:22;;;;;;;;;;;22.20;61.60;;;;;;1566552;74;1149;-81
2022/12/09 04:42:23;;;;;;;;;;;22.20;61.50;;;;;;1574244;74;751;-78
2022/12/09 04:44:25;;;;;;;;;;;22.20;61.50;;;;;;1570655;74;701;-78
2022/12/09 04:46:27;;;;;;;;;;;22.20;61.50;;;;;;1571816;74;697;-80
2022/12/09 04:48:29;;;;;;;;;;;22.20;61.50;;;;;;1574547;75;691;-79
2022/12/09 04:50:31;;;;;;;;;;;22.30;61.70;;;;;;1572166;75;1939;-80
2022/12/09 04:52:33;;;;;;;;;;;22.20;61.70;;;;;;1567132;75;714;-80
2022/12/09 04:54:35;;;;;;;;;;;22.20;61.60;;;;;;1565829;74;622;-80
2022/12/09 04:56:37;;;;;;;;;;;22.30;61.70;;;;;;1567521;75;728;-80
2022/12/09 04:58:39;;;;;;;;;;;22.20;61.60;;;;;;1561557;74;727;-80
2022/12/09 05:00:41;;;;;;;;;;;22.20;61.60;;;;;;1568506;74;1609;-78
2022/12/09 05:02:43;;;;;;;;;;;22.20;61.70;;;;;;1557997;74;690;-80
2022/12/09 05:04:45;;;;;;;;;;;22.30;61.70;;;;;;1556615;74;769;-81
2022/12/09 05:06:47;;;;;;;;;;;22.20;61.60;;;;;;1571279;74;728;-79
2022/12/09 05:08:49;;;;;;;;;;;22.30;61.60;;;;;;1578438;75;584;-79
2022/12/09 05:10:51;;;;;;;;;;;22.20;61.60;;;;;;1561918;75;1942;-80
2022/12/09 05:12:53;;;;;;;;;;;22.30;61.70;;;;;;1565821;75;807;-79
2022/12/09 05:14:55;;;;;;;;;;;22.20;61.60;;;;;;1575683;74;921;-79
2022/12/09 05:16:56;;;;;;;;;;;22.20;61.60;;;;;;1561609;74;746;-78
2022/12/09 05:18:58;;;;;;;;;;;22.30;61.70;;;;;;1568418;74;729;-81
2022/12/09 05:21:02;;;;;;;;;;;22.20;61.50;;;;;;1559811;74;1122;-78
2022/12/09 05:23:04;;;;;;;;;;;22.30;61.60;;;;;;1573979;74;1597;-79
2022/12/09 05:25:06;;;;;;;;;;;22.30;61.60;;;;;;1568896;74;718;-82
2022/12/09 05:27:08;;;;;;;;;;;22.30;61.50;;;;;;1568020;74;740;-81
2022/12/09 05:29:09;;;;;;;;;;;22.30;61.60;;;;;;1570642;75;1933;-79
2022/12/09 05:31:18;;;;;;;;;;;22.30;61.70;;;;;;1572618;74;1186;-79
2022/12/09 05:33:16;;;;;;;;;;;22.20;61.60;;;;;;1566682;74;1858;-80
2022/12/09 05:35:18;;;;;;;;;;;22.30;61.60;;;;;;1567249;74;738;-79
2022/12/09 05:37:20;;;;;;;;;;;22.20;61.50;;;;;;1576083;74;724;-80
2022/12/09 05:39:22;;;;;;;;;;;22.30;61.80;;;;;;1568136;75;1166;-72
2022/12/09 05:41:24;;;;;;;;;;;22.30;61.80;;;;;;1568542;74;696;-74
2022/12/09 05:43:26;;;;;;;;;;;22.30;61.60;;;;;;1571021;74;764;-68
2022/12/09 05:45:28;;;;;;;;;;;22.30;61.40;;;;;;1571530;74;699;-72
2022/12/09 05:47:30;;;;;;;;;;;22.30;61.30;;;;;;1573209;74;682;-73
2022/12/09 05:49:31;;;;;;;;;;;22.30;61.20;;;;;;1559949;74;1939;-75
2022/12/09 05:51:33;;;;;;;;;;;22.10;61.00;;;;;;1569289;74;726;-71
2022/12/09 05:53:35;;;;;;;;;;;22.10;60.90;;;;;;1562870;74;690;-70
2022/12/09 05:55:40;;;;;;;;;;;22.10;60.90;;;;;;1570468;74;711;-71
2022/12/09 05:57:42;;;;;;;;;;;22.10;60.80;;;;;;1566575;74;699;-75
2022/12/09 05:59:44;;;;;;;;;;;22.10;60.80;;;;;;1574008;75;1139;-71
2022/12/09 06:01:46;;;;;;;;;;;22.10;60.70;;;;;;1573600;74;741;-71
2022/12/09 06:03:48;;;;;;;;;;;22.00;60.60;;;;;;1575492;75;819;-73
2022/12/09 06:05:50;;;;;;;;;;;22.00;60.60;;;;;;1562421;75;736;-73
2022/12/09 06:07:52;;;;;;;;;;;22.00;60.50;;;;;;1572420;74;713;-73
2022/12/09 06:09:53;;;;;;;;;;;22.00;60.50;;;;;;1570535;74;1921;-72
2022/12/09 06:11:55;;;;;;;;;;;22.10;60.50;;;;;;1571905;74;744;-73
2022/12/09 06:13:57;;;;;;;;;;;22.00;60.40;;;;;;1574074;74;694;-70
2022/12/09 06:16:04;;;;;;;;;;;22.00;60.40;;;;;;1569053;75;733;-72
2022/12/09 06:18:05;;;;;;;;;;;22.00;60.30;;;;;;1559594;74;1062;-76
2022/12/09 06:20:07;;;;;;;;;;;22.00;60.30;;;;;;1561150;74;1158;-76
2022/12/09 06:22:09;;;;;;;;;;;22.10;60.40;;;;;;1575931;75;765;-77
2022/12/09 06:24:11;;;;;;;;;;;22.00;60.20;;;;;;1574422;74;737;-79
2022/12/09 06:26:17;;;;;;;;;;;22.10;60.30;;;;;;1572206;74;742;-78
2022/12/09 06:28:19;;;;;;;;;;;22.10;60.20;;;;;;1570550;74;737;-77
2022/12/09 06:30:21;;;;;;;;;;;22.00;60.10;;;;;;1567024;74;1939;-79
2022/12/09 06:32:23;;;;;;;;;;;22.10;60.20;;;;;;1567848;74;718;-78
2022/12/09 06:34:25;;;;;;;;;;;22.00;60.10;;;;;;1561963;75;775;-77
2022/12/09 06:36:27;;;;;;;;;;;22.10;60.20;;;;;;1566953;74;768;-78
2022/12/09 06:38:29;;;;;;;;;;;22.10;60.10;;;;;;1575684;74;710;-77
2022/12/09 06:40:31;;;;;;;;;;;22.10;60.20;;;;;;1576733;74;1147;-76
2022/12/09 06:42:33;;;;;;;;;;;22.00;60.00;;;;;;1565457;74;765;-76
2022/12/09 06:44:36;;;;;;;;;;;22.00;60.00;;;;;;1575995;74;763;-77
2022/12/09 06:46:37;;;;;;;;;;;22.10;60.10;;;;;;1575234;75;742;-72
2022/12/09 06:48:39;;;;;;;;;;;22.10;60.10;;;;;;1560509;75;714;-76
2022/12/09 06:50:41;;;;;;;;;;;22.00;60.00;;;;;;1570818;74;1957;-76
2022/12/09 06:52:43;;;;;;;;;;;22.00;59.80;;;;;;1559711;75;1558;-76
2022/12/09 06:54:45;;;;;;;;;;;22.00;59.70;;;;;;1559730;75;771;-76
2022/12/09 06:56:47;;;;;;;;;;;22.00;59.70;;;;;;1558616;74;710;-77
2022/12/09 06:58:49;;;;;;;;;;;22.00;59.70;;;;;;1575020;75;706;-76
2022/12/09 07:00:51;;;;;;;;;;;22.00;59.70;;;;;;1559778;75;1105;-76
2022/12/09 07:02:53;;;;;;;;;;;22.00;59.70;;;;;;1567174;75;832;-76
2022/12/09 07:04:54;;;;;;;;;;;22.00;59.70;;;;;;1571188;74;785;-75
2022/12/09 07:06:56;;;;;;;;;;;22.00;59.70;;;;;;1574199;74;710;-73
2022/12/09 07:08:59;;;;;;;;;;;22.00;59.60;;;;;;1576336;74;775;-76
2022/12/09 07:11:01;;;;;;;;;;;22.00;57.30;;;;;;1568145;74;1955;-77
2022/12/09 07:13:03;;;;;;;;;;;21.90;57.30;;;;;;1575784;75;735;-78
2022/12/09 07:15:05;;;;;;;;;;;21.90;56.70;;;;;;1572895;74;743;-78
2022/12/09 07:17:07;;;;;;;;;;;21.90;56.60;;;;;;1573393;75;753;-76
2022/12/09 07:19:10;;;;;;;;;;;21.90;56.60;;;;;;1558113;74;874;-76
2022/12/09 07:21:13;;;;;;;;;;;21.90;56.70;;;;;;1569360;74;1461;-77
2022/12/09 07:23:15;;;;;;;;;;;21.90;56.80;;;;;;1559387;74;741;-78
2022/12/09 07:25:17;;;;;;;;;;;21.90;56.90;;;;;;1568891;75;750;-76
2022/12/09 07:27:19;;;;;;;;;;;21.90;56.90;;;;;;1576686;74;743;-75
2022/12/09 07:29:21;;;;;;;;;;;21.90;57.10;;;;;;1572100;75;1180;-76
2022/12/09 07:31:24;;;;;;;;;;;21.90;57.20;;;;;;1573434;74;1939;-77
2022/12/09 07:33:26;;;;;;;;;;;21.90;57.20;;;;;;1566745;74;915;-77
2022/12/09 07:35:28;;;;;;;;;;;22.00;57.30;;;;;;1559708;74;744;-76
2022/12/09 07:37:30;;;;;;;;;;;21.90;57.40;;;;;;1575784;75;717;-75
2022/12/09 07:39:32;;;;;;;;;;;21.90;57.50;;;;;;1560941;74;1175;-76
2022/12/09 07:41:34;;;;;;;;;;;21.90;57.50;;;;;;1570081;74;724;-77
2022/12/09 07:43:36;;;;;;;;;;;21.90;57.60;;;;;;1577750;74;699;-77
2022/12/09 07:45:37;;;;;;;;;;;21.90;57.70;;;;;;1572823;74;688;-76
2022/12/09 07:47:39;;;;;;;;;;;21.90;57.70;;;;;;1571126;74;721;-77
2022/12/09 07:49:42;;;;;;;;;;;21.90;57.80;;;;;;1574129;74;1563;-77
2022/12/09 07:51:44;;;;;;;;;;;21.90;57.80;;;;;;1572711;74;1908;-77
2022/12/09 07:53:46;;;;;;;;;;;21.90;57.90;;;;;;1574177;74;731;-77
2022/12/09 07:55:47;;;;;;;;;;;21.90;57.90;;;;;;1573937;74;757;-77
2022/12/09 07:57:49;;;;;;;;;;;21.90;57.90;;;;;;1573261;74;728;-75
2022/12/09 07:59:52;;;;;;;;;;;21.90;58.00;;;;;;1577303;75;1152;-77
2022/12/09 08:01:54;;;;;;;;;;;21.90;58.00;;;;;;1573765;74;854;-75
2022/12/09 08:03:55;;;;;;;;;;;21.90;58.10;;;;;;1565075;74;700;-78
2022/12/09 08:05:57;;;;;;;;;;;21.90;58.10;;;;;;1571964;74;815;-77
2022/12/09 08:07:59;;;;;;;;;;;21.90;58.10;;;;;;1577283;74;707;-77
2022/12/09 08:10:01;;;;;;;;;;;22.00;58.10;;;;;;1580529;70;2121;-69
2022/12/09 08:12:03;;;;;;;;;;;22.00;58.10;;;;;;1577393;74;557;-74
2022/12/09 08:14:05;;;;;;;;;;;22.00;58.10;;;;;;1575686;73;804;-72
2022/12/09 08:16:08;;;;;;;;;;;21.90;58.10;;;;;;1573987;74;777;-72
2022/12/09 08:18:09;;;;;;;;;;;22.00;58.10;;;;;;1578357;74;786;-72
2022/12/09 08:20:12;;;;;;;;;;;21.90;58.10;;;;;;1585406;72;1220;-72
2022/12/09 08:22:13;;;;;;;;;;;21.90;58.20;;;;;;1604775;72;713;-73
2022/12/09 08:24:15;;;;;;;;;;;21.90;58.20;;;;;;1607411;72;702;-73
2022/12/09 08:26:18;;;;;;;;;;;22.00;58.20;;;;;;1608031;74;682;-71
2022/12/09 08:28:20;;;;;;;;;;;22.00;58.20;;;;;;1606249;72;736;-69
2022/12/09 08:30:22;;;;;;;;;;;21.90;58.20;;;;;;1606887;72;1944;-71
2022/12/09 08:32:24;;;;;;;;;;;22.00;58.10;;;;;;1607337;72;696;-70
2022/12/09 08:34:26;;;;;;;;;;;21.90;58.20;;;;;;1607288;72;773;-71
2022/12/09 08:36:27;;;;;;;;;;;22.00;58.20;;;;;;1610464;72;694;-71
2022/12/09 08:38:30;;;;;;;;;;;22.00;58.10;;;;;;1607660;72;658;-72
2022/12/09 08:40:32;;;;;;;;;;;22.10;58.20;;;;;;1607650;73;1163;-74
2022/12/09 08:42:34;;;;;;;;;;;22.00;58.10;;;;;;1606588;74;693;-71
2022/12/09 08:44:36;;;;;;;;;;;21.90;58.10;;;;;;1600522;72;1405;-72
2022/12/09 08:46:39;;;;;;;;;;;22.00;58.10;;;;;;1599646;72;769;-72
2022/12/09 08:48:41;;;;;;;;;;;22.00;58.10;;;;;;1602106;72;683;-71
2022/12/09 08:50:43;;;;;;;;;;;22.00;58.10;;;;;;1615100;72;1952;-70
2022/12/09 08:52:45;;;;;;;;;;;22.00;58.10;;;;;;1601758;72;690;-71
2022/12/09 08:54:47;;;;;;;;;;;22.00;58.10;;;;;;1607095;72;777;-72
2022/12/09 08:56:50;;;;;;;;;;;22.00;58.10;;;;;;1604365;72;751;-71
2022/12/09 08:58:52;;;;;;;;;;;22.00;58.10;;;;;;1603569;72;811;-70
2022/12/09 09:00:53;;;;;;;;;;;22.00;58.20;;;;;;1607034;72;1149;-71
2022/12/09 09:02:55;;;;;;;;;;;22.00;58.10;;;;;;1601180;72;856;-72
2022/12/09 09:04:58;;;;;;;;;;;22.00;58.10;;;;;;1603963;72;708;-73
2022/12/09 09:07:00;;;;;;;;;;;22.00;58.10;;;;;;1594416;73;709;-71
2022/12/09 09:09:02;;;;;;;;;;;22.00;58.10;;;;;;1604896;72;668;-73
2022/12/09 09:11:09;;;;;;;;;;;22.00;58.20;;;;;;1603849;74;1946;-71
2022/12/09 09:13:09;;;;;;;;;;;22.00;58.10;;;;;;1601847;72;1566;-70
2022/12/09 09:15:11;;;;;;;;;;;22.00;58.10;;;;;;1606677;73;701;-71
2022/12/09 09:17:13;;;;;;;;;;;22.00;58.10;;;;;;1600924;74;604;-70
2022/12/09 09:19:17;;;;;;;;;;;22.00;58.10;;;;;;1574776;74;711;-71
2022/12/09 09:21:20;;;;;;;;;;;22.00;58.10;;;;;;1606144;73;1162;-71
2022/12/09 09:23:22;;;;;;;;;;;22.00;58.20;;;;;;1600758;72;775;-71
2022/12/09 09:25:24;;;;;;;;;;;22.00;58.20;;;;;;1595975;72;660;-71
2022/12/09 09:27:26;;;;;;;;;;;22.00;58.20;;;;;;1605047;72;734;-71
2022/12/09 09:29:28;;;;;;;;;;;22.00;58.20;;;;;;1592677;72;711;-70
2022/12/09 09:31:30;;;;;;;;;;;22.00;58.10;;;;;;1606872;73;1952;-72
2022/12/09 09:33:31;;;;;;;;;;;22.00;58.10;;;;;;1608164;74;724;-72
2022/12/09 09:35:33;;;;;;;;;;;22.00;58.10;;;;;;1611348;72;790;-70
2022/12/09 09:37:35;;;;;;;;;;;22.00;58.10;;;;;;1604530;74;767;-70
2022/12/09 09:39:37;;;;;;;;;;;22.00;58.10;;;;;;1593512;72;790;-70
2022/12/09 09:41:56;;;;;;;;;;;22.00;58.10;;;;;;1604933;72;1440;-70
2022/12/09 09:43:58;;;;;;;;;;;22.00;58.10;;;;;;1604352;72;1090;-74
2022/12/09 09:46:00;;;;;;;;;;;22.00;58.10;;;;;;1594429;73;702;-71
2022/12/09 09:48:02;;;;;;;;;;;22.00;58.10;;;;;;1600778;72;699;-71
2022/12/09 09:50:08;;;;;;;;;;;22.00;58.10;;;;;;1606223;72;1130;-70
2022/12/09 09:52:12;;;;;;;;;;;22.00;58.10;;;;;;1602247;73;1924;-73
2022/12/09 09:54:13;;;;;;;;;;;22.00;58.10;;;;;;1605649;73;1037;-73
2022/12/09 09:56:20;;;;;;;;;;;22.00;58.10;;;;;;1609424;72;725;-71
2022/12/09 09:58:26;;;;;;;;;;;22.00;58.10;;;;;;1606690;73;1132;-73
2022/12/09 10:00:30;;;;;;;;;;;22.00;58.10;;;;;;1607602;72;1148;-71
2022/12/09 10:02:36;;;;;;;;;;;22.00;58.10;;;;;;1604330;74;1014;-72
2022/12/09 10:04:45;;;;;;;;;;;22.00;58.10;;;;;;1603115;72;2012;-73
2022/12/09 10:07:04;;;;;;;;;;;22.00;58.10;;;;;;1602714;73;591;-74
2022/12/09 10:09:13;;;;;;;;;;;22.00;58.10;;;;;;1606409;72;1118;-71
2022/12/09 10:11:19;;;;;;;;;;;22.00;58.00;;;;;;1602038;72;1934;-74
2022/12/09 10:13:23;;;;;;;;;;;22.00;58.00;;;;;;1602184;73;943;-74
2022/12/09 10:15:26;;;;;;;;;;;22.00;57.90;;;;;;1599592;74;1135;-72
2022/12/09 10:17:29;;;;;;;;;;;22.00;58.00;;;;;;1610541;72;1058;-74
2022/12/09 10:19:32;;;;;;;;;;;22.00;57.90;;;;;;1606190;74;730;-75
2022/12/09 10:21:35;;;;;;;;;;;22.00;57.90;;;;;;1604848;72;1170;-73
2022/12/09 10:23:37;;;;;;;;;;;22.00;57.80;;;;;;1604563;72;701;-72
2022/12/09 10:25:50;;;;;;;;;;;22.00;57.80;;;;;;1598969;72;686;-72
2022/12/09 10:28:03;;;;;;;;;;;22.00;57.80;;;;;;1603884;72;676;-72
2022/12/09 10:30:06;;;;;;;;;;;22.00;57.70;;;;;;1602563;72;1165;-72
2022/12/09 10:32:13;;;;;;;;;;;22.00;57.70;;;;;;1606268;72;1924;-73
2022/12/09 10:34:15;;;;;;;;;;;22.00;57.70;;;;;;1605996;72;734;-72
2022/12/09 10:36:18;;;;;;;;;;;22.00;57.60;;;;;;1606265;72;745;-73
2022/12/09 10:38:20;;;;;;;;;;;22.00;57.60;;;;;;1599561;72;1610;-72
2022/12/09 10:40:36;;;;;;;;;;;22.00;57.60;;;;;;1600661;72;1126;-72
2022/12/09 10:45:06;;;;;;;;;;;22.00;57.70;;;;;;1607201;72;1650;-68
2022/12/09 10:47:09;;;;;;;;;;;22.00;57.70;;;;;;1606255;72;743;-73
2022/12/09 10:49:16;;;;;;;;;;;22.10;57.80;;;;;;1591443;72;908;-72
2022/12/09 10:51:22;;;;;;;;;;;22.00;57.70;;;;;;1599402;72;1931;-70
2022/12/09 10:53:24;;;;;;;;;;;22.10;57.80;;;;;;1610206;72;677;-72
2022/12/09 10:55:27;;;;;;;;;;;22.00;57.80;;;;;;1607470;72;786;-69
2022/12/09 10:57:29;;;;;;;;;;;22.10;57.90;;;;;;1603384;72;1045;-72
2022/12/09 10:59:31;;;;;;;;;;;22.00;57.50;;;;;;1604667;72;675;-72
2022/12/09 11:01:34;;;;;;;;;;;21.90;57.00;;;;;;1599127;72;1080;-73
2022/12/09 11:03:41;;;;;;;;;;;22.00;56.80;;;;;;1605230;72;1120;-70
2022/12/09 11:05:43;;;;;;;;;;;22.00;56.70;;;;;;1602814;72;690;-72
2022/12/09 11:07:48;;;;;;;;;;;22.00;56.70;;;;;;1608603;73;743;-76
2022/12/09 11:09:50;;;;;;;;;;;22.00;56.70;;;;;;1601148;72;1140;-71
2022/12/09 11:11:52;;;;;;;;;;;22.00;56.70;;;;;;1610321;72;1927;-75
2022/12/09 11:13:54;;;;;;;;;;;22.00;56.70;;;;;;1601112;72;707;-72
2022/12/09 11:16:02;;;;;;;;;;;22.00;56.80;;;;;;1601913;72;692;-73
2022/12/09 11:18:01;;;;;;;;;;;22.10;57.10;;;;;;1606728;72;1129;-72
2022/12/09 11:20:08;;;;;;;;;;;22.10;57.20;;;;;;1604347;72;1174;-70
2022/12/09 11:22:39;;;;;;;;;;;22.00;57.20;;;;;;1606920;72;733;-70
2022/12/09 11:24:41;;;;;;;;;;;22.10;57.40;;;;;;1605252;72;702;-73
2022/12/09 11:26:42;;;;;;;;;;;22.10;57.50;;;;;;1607656;74;717;-71
2022/12/09 11:28:44;;;;;;;;;;;22.00;57.50;;;;;;1605148;72;772;-71
2022/12/09 11:30:50;;;;;;;;;;;22.10;57.80;;;;;;1607490;72;1186;-72
2022/12/09 11:33:06;;;;;;;;;;;22.10;57.80;;;;;;1604324;72;1936;-72
2022/12/09 11:35:09;;;;;;;;;;;22.20;57.90;;;;;;1603306;74;1732;-72
2022/12/09 11:37:11;;;;;;;;;;;22.00;57.90;;;;;;1596579;72;1118;-72
2022/12/09 11:39:24;;;;;;;;;;;22.00;57.90;;;;;;1607549;72;749;-71
2022/12/09 11:43:46;;;;;;;;;;;22.10;58.10;;;;;;1602929;72;1673;-71
2022/12/09 11:45:48;;;;;;;;;;;22.10;58.20;;;;;;1610366;72;745;-73
2022/12/09 11:47:51;;;;;;;;;;;22.10;58.30;;;;;;1607468;72;676;-73
2022/12/09 11:49:54;;;;;;;;;;;22.10;58.30;;;;;;1606683;72;1138;-70
2022/12/09 11:52:00;;;;;;;;;;;22.10;58.20;;;;;;1603221;72;1932;-73
2022/12/09 11:54:12;;;;;;;;;;;22.10;58.30;;;;;;1605202;74;720;-72
2022/12/09 11:56:18;;;;;;;;;;;22.10;58.30;;;;;;1603974;72;716;-71
2022/12/09 11:58:30;;;;;;;;;;;22.10;58.40;;;;;;1605985;72;665;-73
2022/12/09 12:00:46;;;;;;;;;;;22.10;58.70;;;;;;1606523;72;1114;-76
2022/12/09 12:02:52;;;;;;;;;;;22.10;58.70;;;;;;1600623;72;1507;-72
2022/12/09 12:04:56;;;;;;;;;;;22.10;58.70;;;;;;1584694;74;1396;-73
2022/12/09 12:07:04;;;;;;;;;;;22.10;58.80;;;;;;1537962;74;992;-71
2022/12/09 12:09:14;;;;;;;;;;;22.10;58.80;;;;;;1606491;72;650;-75
2022/12/09 12:11:17;;;;;;;;;;;22.10;58.80;;;;;;1602381;72;1142;-71
2022/12/09 12:13:23;;;;;;;;;;;22.10;58.80;;;;;;1605271;72;1967;-72
2022/12/09 12:15:26;;;;;;;;;;;22.10;58.80;;;;;;1609111;72;741;-72
2022/12/09 12:17:39;;;;;;;;;;;22.10;58.80;;;;;;1604526;72;936;-71
2022/12/09 12:19:41;;;;;;;;;;;22.10;58.80;;;;;;1604762;72;1170;-73